sensor_id;sensor_type;location;lat;lon;timestamp;pressure;altitude;pressure_sealevel;temperature;humidity
54540;BME280;40438;52.992;18.604;2022-12-07T00:01:42;100316.81;;;1.76;100.00
54540;BME280;40438;52.992;18.604;2022-12-07T00:04:11;100319.31;;;1.70;100.00
54540;BME280;40438;52.992;18.604;2022-12-07T00:06:39;100325.25;;;1.80;100.00
54540;BME280;40438;52.992;18.604;2022-12-07T00:09:09;100328.06;;;1.70;100.00
54540;BME280;40438;52.992;18.604;2022-12-07T00:11:35;100319.97;;;1.63;100.00
54540;BME280;40438;52.992;18.604;2022-12-07T00:14:03;100324.59;;;1.78;100.00
54540;BME280;40438;52.992;18.604;2022-12-07T00:16:32;100315.22;;;1.59;100.00
54540;BME280;40438;52.992;18.604;2022-12-07T00:18:59;100316.66;;;1.61;100.00
54540;BME280;40438;52.992;18.604;2022-12-07T00:21:26;100317.69;;;1.52;100.00
54540;BME280;40438;52.992;18.604;2022-12-07T00:23:54;100305.81;;;1.56;100.00
54540;BME280;40438;52.992;18.604;2022-12-07T00:26:23;100310.75;;;1.59;100.00
54540;BME280;40438;52.992;18.604;2022-12-07T00:28:51;100319.00;;;1.56;100.00
54540;BME280;40438;52.992;18.604;2022-12-07T00:31:19;100312.88;;;1.48;100.00
54540;BME280;40438;52.992;18.604;2022-12-07T00:33:45;100306.94;;;1.46;100.00
54540;BME280;40438;52.992;18.604;2022-12-07T00:36:13;100313.72;;;1.48;100.00
54540;BME280;40438;52.992;18.604;2022-12-07T00:38:40;100321.81;;;1.47;100.00
54540;BME280;40438;52.992;18.604;2022-12-07T00:41:09;100302.50;;;1.54;100.00
54540;BME280;40438;52.992;18.604;2022-12-07T00:43:37;100304.47;;;1.60;100.00
54540;BME280;40438;52.992;18.604;2022-12-07T00:46:04;100303.50;;;1.53;100.00
54540;BME280;40438;52.992;18.604;2022-12-07T00:48:29;100297.88;;;1.48;100.00
54540;BME280;40438;52.992;18.604;2022-12-07T00:50:56;100303.81;;;1.42;100.00
54540;BME280;40438;52.992;18.604;2022-12-07T00:53:22;100305.63;;;1.42;100.00
54540;BME280;40438;52.992;18.604;2022-12-07T00:55:48;100298.22;;;1.29;100.00
54540;BME280;40438;52.992;18.604;2022-12-07T00:58:14;100302.31;;;1.23;100.00
54540;BME280;40438;52.992;18.604;2022-12-07T01:00:42;100304.00;;;1.24;100.00
54540;BME280;40438;52.992;18.604;2022-12-07T01:03:10;100303.47;;;1.29;100.00
54540;BME280;40438;52.992;18.604;2022-12-07T01:05:36;100300.69;;;1.22;100.00
54540;BME280;40438;52.992;18.604;2022-12-07T01:08:02;100296.91;;;1.25;100.00
54540;BME280;40438;52.992;18.604;2022-12-07T01:10:28;100286.66;;;1.22;100.00
54540;BME280;40438;52.992;18.604;2022-12-07T01:12:54;100292.94;;;1.21;100.00
54540;BME280;40438;52.992;18.604;2022-12-07T01:15:20;100286.16;;;1.26;100.00
54540;BME280;40438;52.992;18.604;2022-12-07T01:17:47;100284.84;;;1.38;100.00
54540;BME280;40438;52.992;18.604;2022-12-07T01:20:13;100285.34;;;1.34;100.00
54540;BME280;40438;52.992;18.604;2022-12-07T01:22:39;100280.41;;;1.31;100.00
54540;BME280;40438;52.992;18.604;2022-12-07T01:25:06;100283.38;;;1.28;100.00
54540;BME280;40438;52.992;18.604;2022-12-07T01:27:32;100273.63;;;1.20;100.00
54540;BME280;40438;52.992;18.604;2022-12-07T01:29:58;100272.47;;;1.23;100.00
54540;BME280;40438;52.992;18.604;2022-12-07T01:32:24;100258.94;;;1.26;100.00
54540;BME280;40438;52.992;18.604;2022-12-07T01:34:51;100267.53;;;1.20;100.00
54540;BME280;40438;52.992;18.604;2022-12-07T01:37:17;100261.94;;;1.31;100.00
54540;BME280;40438;52.992;18.604;2022-12-07T01:39:42;100259.47;;;1.21;100.00
54540;BME280;40438;52.992;18.604;2022-12-07T01:42:09;100260.75;;;1.17;100.00
54540;BME280;40438;52.992;18.604;2022-12-07T01:47:34;100250.72;;;1.21;100.00
54540;BME280;40438;52.992;18.604;2022-12-07T01:50:02;100245.75;;;1.26;100.00
54540;BME280;40438;52.992;18.604;2022-12-07T01:52:30;100253.19;;;1.22;100.00
54540;BME280;40438;52.992;18.604;2022-12-07T01:54:58;100252.38;;;1.22;100.00
54540;BME280;40438;52.992;18.604;2022-12-07T01:57:25;100246.75;;;1.25;100.00
54540;BME280;40438;52.992;18.604;2022-12-07T01:59:52;100246.44;;;1.28;100.00
54540;BME280;40438;52.992;18.604;2022-12-07T02:02:21;100239.19;;;1.22;100.00
54540;BME280;40438;52.992;18.604;2022-12-07T02:04:49;100237.34;;;1.22;100.00
54540;BME280;40438;52.992;18.604;2022-12-07T02:07:18;100234.53;;;1.24;100.00
54540;BME280;40438;52.992;18.604;2022-12-07T02:09:44;100227.47;;;1.24;100.00
54540;BME280;40438;52.992;18.604;2022-12-07T02:12:10;100222.69;;;1.20;100.00
54540;BME280;40438;52.992;18.604;2022-12-07T02:14:36;100217.22;;;1.29;100.00
54540;BME280;40438;52.992;18.604;2022-12-07T02:17:09;100216.75;;;1.26;100.00
54540;BME280;40438;52.992;18.604;2022-12-07T02:20:04;100207.31;;;1.39;100.00
54540;BME280;40438;52.992;18.604;2022-12-07T02:25:57;100209.66;;;1.18;100.00
54540;BME280;40438;52.992;18.604;2022-12-07T02:28:31;100206.38;;;1.24;100.00
54540;BME280;40438;52.992;18.604;2022-12-07T02:31:04;100209.50;;;1.28;100.00
54540;BME280;40438;52.992;18.604;2022-12-07T02:33:35;100209.16;;;1.23;100.00
54540;BME280;40438;52.992;18.604;2022-12-07T02:36:04;100217.72;;;1.33;100.00
54540;BME280;40438;52.992;18.604;2022-12-07T02:38:37;100212.09;;;1.36;100.00
54540;BME280;40438;52.992;18.604;2022-12-07T02:41:07;100211.28;;;1.35;100.00
54540;BME280;40438;52.992;18.604;2022-12-07T02:43:39;100214.09;;;1.34;100.00
54540;BME280;40438;52.992;18.604;2022-12-07T02:46:12;100205.84;;;1.37;100.00
54540;BME280;40438;52.992;18.604;2022-12-07T02:48:39;100206.53;;;1.31;100.00
54540;BME280;40438;52.992;18.604;2022-12-07T02:51:06;100207.19;;;1.25;100.00
54540;BME280;40438;52.992;18.604;2022-12-07T02:53:34;100204.53;;;1.16;100.00
54540;BME280;40438;52.992;18.604;2022-12-07T02:56:06;100197.13;;;1.12;100.00
54540;BME280;40438;52.992;18.604;2022-12-07T02:58:46;100196.97;;;1.13;100.00
54540;BME280;40438;52.992;18.604;2022-12-07T03:01:25;100197.78;;;1.22;100.00
54540;BME280;40438;52.992;18.604;2022-12-07T03:04:02;100192.31;;;1.24;100.00
54540;BME280;40438;52.992;18.604;2022-12-07T03:06:36;100195.31;;;1.12;100.00
54540;BME280;40438;52.992;18.604;2022-12-07T03:09:12;100200.59;;;1.21;100.00
54540;BME280;40438;52.992;18.604;2022-12-07T03:11:44;100196.28;;;1.20;100.00
54540;BME280;40438;52.992;18.604;2022-12-07T03:14:13;100197.44;;;1.17;100.00
54540;BME280;40438;52.992;18.604;2022-12-07T03:16:45;100195.47;;;1.19;100.00
54540;BME280;40438;52.992;18.604;2022-12-07T03:19:17;100187.56;;;1.27;100.00
54540;BME280;40438;52.992;18.604;2022-12-07T03:21:50;100187.38;;;1.37;100.00
54540;BME280;40438;52.992;18.604;2022-12-07T03:24:19;100188.72;;;1.25;100.00
54540;BME280;40438;52.992;18.604;2022-12-07T03:26:49;100191.50;;;1.31;100.00
54540;BME280;40438;52.992;18.604;2022-12-07T03:29:20;100177.47;;;1.39;100.00
54540;BME280;40438;52.992;18.604;2022-12-07T03:31:54;100185.03;;;1.42;100.00
54540;BME280;40438;52.992;18.604;2022-12-07T03:34:26;100179.75;;;1.42;100.00
54540;BME280;40438;52.992;18.604;2022-12-07T03:36:58;100179.28;;;1.38;100.00
54540;BME280;40438;52.992;18.604;2022-12-07T03:39:29;100173.53;;;1.35;100.00
54540;BME280;40438;52.992;18.604;2022-12-07T03:41:57;100171.69;;;1.35;100.00
54540;BME280;40438;52.992;18.604;2022-12-07T03:44:25;100175.81;;;1.46;100.00
54540;BME280;40438;52.992;18.604;2022-12-07T03:47:00;100174.28;;;1.52;100.00
54540;BME280;40438;52.992;18.604;2022-12-07T03:49:31;100171.84;;;1.50;100.00
54540;BME280;40438;52.992;18.604;2022-12-07T03:52:07;100169.34;;;1.49;100.00
54540;BME280;40438;52.992;18.604;2022-12-07T03:54:36;100160.47;;;1.50;100.00
54540;BME280;40438;52.992;18.604;2022-12-07T03:57:04;100171.13;;;1.65;100.00
54540;BME280;40438;52.992;18.604;2022-12-07T03:59:31;100156.28;;;1.63;100.00
54540;BME280;40438;52.992;18.604;2022-12-07T04:02:03;100157.81;;;1.50;100.00
54540;BME280;40438;52.992;18.604;2022-12-07T04:04:29;100149.56;;;1.53;100.00
54540;BME280;40438;52.992;18.604;2022-12-07T04:06:56;100154.13;;;1.67;100.00
54540;BME280;40438;52.992;18.604;2022-12-07T04:09:21;100153.78;;;1.70;100.00
54540;BME280;40438;52.992;18.604;2022-12-07T04:11:47;100149.50;;;1.69;100.00
54540;BME280;40438;52.992;18.604;2022-12-07T04:14:13;100147.97;;;1.83;100.00
54540;BME280;40438;52.992;18.604;2022-12-07T04:16:39;100143.84;;;1.80;100.00
54540;BME280;40438;52.992;18.604;2022-12-07T04:19:06;100146.13;;;1.83;100.00
54540;BME280;40438;52.992;18.604;2022-12-07T04:21:32;100148.41;;;1.95;100.00
54540;BME280;40438;52.992;18.604;2022-12-07T04:23:57;100152.41;;;1.91;100.00
54540;BME280;40438;52.992;18.604;2022-12-07T04:26:23;100148.28;;;1.88;100.00
54540;BME280;40438;52.992;18.604;2022-12-07T04:28:49;100150.91;;;1.88;100.00
54540;BME280;40438;52.992;18.604;2022-12-07T04:31:15;100154.72;;;1.85;100.00
54540;BME280;40438;52.992;18.604;2022-12-07T04:33:40;100153.22;;;1.91;100.00
54540;BME280;40438;52.992;18.604;2022-12-07T04:36:08;100154.50;;;1.95;100.00
54540;BME280;40438;52.992;18.604;2022-12-07T04:38:33;100147.41;;;1.96;100.00
54540;BME280;40438;52.992;18.604;2022-12-07T04:41:04;100158.28;;;2.01;100.00
54540;BME280;40438;52.992;18.604;2022-12-07T04:43:30;100152.81;;;2.02;100.00
54540;BME280;40438;52.992;18.604;2022-12-07T04:45:56;100152.81;;;2.02;100.00
54540;BME280;40438;52.992;18.604;2022-12-07T04:48:21;100143.22;;;2.09;100.00
54540;BME280;40438;52.992;18.604;2022-12-07T04:50:47;100156.16;;;1.96;100.00
54540;BME280;40438;52.992;18.604;2022-12-07T04:53:15;100143.78;;;1.97;100.00
54540;BME280;40438;52.992;18.604;2022-12-07T04:55:40;100146.38;;;2.05;100.00
54540;BME280;40438;52.992;18.604;2022-12-07T04:58:06;100140.94;;;2.06;100.00
54540;BME280;40438;52.992;18.604;2022-12-07T05:00:32;100143.72;;;2.05;100.00
54540;BME280;40438;52.992;18.604;2022-12-07T05:02:58;100137.16;;;2.01;100.00
54540;BME280;40438;52.992;18.604;2022-12-07T05:05:24;100123.13;;;2.00;100.00
54540;BME280;40438;52.992;18.604;2022-12-07T05:07:49;100120.19;;;1.95;100.00
54540;BME280;40438;52.992;18.604;2022-12-07T05:10:17;100123.81;;;1.94;100.00
54540;BME280;40438;52.992;18.604;2022-12-07T05:12:43;100125.66;;;1.94;100.00
54540;BME280;40438;52.992;18.604;2022-12-07T05:15:09;100124.28;;;1.98;100.00
54540;BME280;40438;52.992;18.604;2022-12-07T05:17:35;100127.50;;;1.85;100.00
54540;BME280;40438;52.992;18.604;2022-12-07T05:20:01;100120.38;;;1.94;100.00
54540;BME280;40438;52.992;18.604;2022-12-07T05:22:26;100117.53;;;1.95;100.00
54540;BME280;40438;52.992;18.604;2022-12-07T05:24:52;100115.91;;;1.94;100.00
54540;BME280;40438;52.992;18.604;2022-12-07T05:27:19;100126.19;;;1.81;100.00
54540;BME280;40438;52.992;18.604;2022-12-07T05:29:45;100126.25;;;1.65;100.00
54540;BME280;40438;52.992;18.604;2022-12-07T05:32:11;100125.09;;;1.67;100.00
54540;BME280;40438;52.992;18.604;2022-12-07T05:34:37;100128.59;;;1.59;100.00
54540;BME280;40438;52.992;18.604;2022-12-07T05:37:03;100124.59;;;1.63;100.00
54540;BME280;40438;52.992;18.604;2022-12-07T05:39:29;100123.78;;;1.63;100.00
54540;BME280;40438;52.992;18.604;2022-12-07T05:41:54;100131.53;;;1.65;100.00
54540;BME280;40438;52.992;18.604;2022-12-07T05:44:22;100124.00;;;1.53;100.00
54540;BME280;40438;52.992;18.604;2022-12-07T05:46:47;100131.72;;;1.55;100.00
54540;BME280;40438;52.992;18.604;2022-12-07T05:49:13;100138.81;;;1.62;100.00
54540;BME280;40438;52.992;18.604;2022-12-07T05:51:39;100141.59;;;1.61;100.00
54540;BME280;40438;52.992;18.604;2022-12-07T05:54:05;100133.53;;;1.54;100.00
54540;BME280;40438;52.992;18.604;2022-12-07T05:56:30;100142.94;;;1.57;100.00
54540;BME280;40438;52.992;18.604;2022-12-07T05:58:56;100144.78;;;1.56;100.00
54540;BME280;40438;52.992;18.604;2022-12-07T06:01:23;100134.56;;;1.45;100.00
54540;BME280;40438;52.992;18.604;2022-12-07T06:03:49;100134.22;;;1.48;100.00
54540;BME280;40438;52.992;18.604;2022-12-07T06:06:15;100136.91;;;1.40;100.00
54540;BME280;40438;52.992;18.604;2022-12-07T06:08:41;100137.72;;;1.41;100.00
54540;BME280;40438;52.992;18.604;2022-12-07T06:11:06;100142.34;;;1.38;100.00
54540;BME280;40438;52.992;18.604;2022-12-07T06:13:32;100133.94;;;1.43;100.00
54540;BME280;40438;52.992;18.604;2022-12-07T06:15:58;100141.84;;;1.35;100.00
54540;BME280;40438;52.992;18.604;2022-12-07T06:18:25;100135.09;;;1.32;100.00
54540;BME280;40438;52.992;18.604;2022-12-07T06:20:51;100134.75;;;1.35;100.00
54540;BME280;40438;52.992;18.604;2022-12-07T06:23:16;100136.44;;;1.28;100.00
54540;BME280;40438;52.992;18.604;2022-12-07T06:25:45;100134.97;;;1.18;100.00
54540;BME280;40438;52.992;18.604;2022-12-07T06:28:10;100134.78;;;1.11;100.00
54540;BME280;40438;52.992;18.604;2022-12-07T06:30:36;100142.22;;;1.07;100.00
54540;BME280;40438;52.992;18.604;2022-12-07T06:33:02;100145.34;;;1.11;100.00
54540;BME280;40438;52.992;18.604;2022-12-07T06:35:29;100149.81;;;1.10;100.00
54540;BME280;40438;52.992;18.604;2022-12-07T06:37:55;100153.44;;;1.09;100.00
54540;BME280;40438;52.992;18.604;2022-12-07T06:40:21;100148.97;;;1.10;100.00
54540;BME280;40438;52.992;18.604;2022-12-07T06:42:46;100148.50;;;1.06;100.00
54540;BME280;40438;52.992;18.604;2022-12-07T06:45:12;100148.00;;;1.03;100.00
54540;BME280;40438;52.992;18.604;2022-12-07T06:47:38;100150.13;;;1.07;100.00
54540;BME280;40438;52.992;18.604;2022-12-07T06:50:05;100150.81;;;1.01;100.00
54540;BME280;40438;52.992;18.604;2022-12-07T06:52:32;100152.81;;;0.99;100.00
54540;BME280;40438;52.992;18.604;2022-12-07T06:54:58;100154.63;;;0.90;100.00
54540;BME280;40438;52.992;18.604;2022-12-07T06:57:24;100150.31;;;0.81;100.00
54540;BME280;40438;52.992;18.604;2022-12-07T06:59:49;100155.63;;;0.89;100.00
54540;BME280;40438;52.992;18.604;2022-12-07T07:02:15;100160.06;;;0.89;100.00
54540;BME280;40438;52.992;18.604;2022-12-07T07:04:41;100159.53;;;0.85;100.00
54540;BME280;40438;52.992;18.604;2022-12-07T07:07:07;100156.75;;;0.87;100.00
54540;BME280;40438;52.992;18.604;2022-12-07T07:09:34;100152.28;;;0.79;100.00
54540;BME280;40438;52.992;18.604;2022-12-07T07:12:00;100153.13;;;0.80;100.00
54540;BME280;40438;52.992;18.604;2022-12-07T07:14:25;100153.81;;;0.74;100.00
54540;BME280;40438;52.992;18.604;2022-12-07T07:16:51;100144.22;;;0.81;100.00
54540;BME280;40438;52.992;18.604;2022-12-07T07:19:17;100147.69;;;0.81;100.00
54540;BME280;40438;52.992;18.604;2022-12-07T07:21:43;100152.16;;;0.81;100.00
54540;BME280;40438;52.992;18.604;2022-12-07T07:24:09;100154.09;;;0.79;100.00
54540;BME280;40438;52.992;18.604;2022-12-07T07:26:36;100147.19;;;0.69;100.00
54540;BME280;40438;52.992;18.604;2022-12-07T07:29:02;100148.84;;;0.71;100.00
54540;BME280;40438;52.992;18.604;2022-12-07T07:31:27;100150.47;;;0.63;100.00
54540;BME280;40438;52.992;18.604;2022-12-07T07:33:53;100151.97;;;0.66;100.00
54540;BME280;40438;52.992;18.604;2022-12-07T07:36:19;100155.78;;;0.80;100.00
54540;BME280;40438;52.992;18.604;2022-12-07T07:38:45;100158.41;;;0.80;100.00
54540;BME280;40438;52.992;18.604;2022-12-07T07:41:10;100161.03;;;0.72;100.00
54540;BME280;40438;52.992;18.604;2022-12-07T07:43:37;100158.91;;;0.67;100.00
54540;BME280;40438;52.992;18.604;2022-12-07T07:46:03;100145.53;;;0.68;100.00
54540;BME280;40438;52.992;18.604;2022-12-07T07:48:29;100156.28;;;0.67;100.00
54540;BME280;40438;52.992;18.604;2022-12-07T07:50:55;100153.47;;;0.68;100.00
54540;BME280;40438;52.992;18.604;2022-12-07T07:53:21;100162.34;;;0.59;100.00
54540;BME280;40438;52.992;18.604;2022-12-07T07:55:52;100169.25;;;0.52;100.00
54540;BME280;40438;52.992;18.604;2022-12-07T07:58:18;100161.34;;;0.52;100.00
54540;BME280;40438;52.992;18.604;2022-12-07T08:00:46;100161.50;;;0.51;100.00
54540;BME280;40438;52.992;18.604;2022-12-07T08:03:12;100165.31;;;0.56;100.00
54540;BME280;40438;52.992;18.604;2022-12-07T08:05:37;100151.47;;;0.62;100.00
54540;BME280;40438;52.992;18.604;2022-12-07T08:08:03;100158.72;;;0.52;100.00
54540;BME280;40438;52.992;18.604;2022-12-07T08:10:29;100163.16;;;0.52;100.00
54540;BME280;40438;52.992;18.604;2022-12-07T08:12:55;100167.94;;;0.56;100.00
54540;BME280;40438;52.992;18.604;2022-12-07T08:15:21;100161.50;;;0.51;100.00
54540;BME280;40438;52.992;18.604;2022-12-07T08:17:48;100158.06;;;0.58;100.00
54540;BME280;40438;52.992;18.604;2022-12-07T08:20:14;100154.75;;;0.73;100.00
54540;BME280;40438;52.992;18.604;2022-12-07T08:22:41;100159.06;;;0.74;100.00
54540;BME280;40438;52.992;18.604;2022-12-07T08:25:07;100153.97;;;0.80;100.00
54540;BME280;40438;52.992;18.604;2022-12-07T08:27:33;100154.44;;;0.76;100.00
54540;BME280;40438;52.992;18.604;2022-12-07T08:29:59;100160.03;;;0.73;100.00
54540;BME280;40438;52.992;18.604;2022-12-07T08:32:24;100158.88;;;0.91;100.00
54540;BME280;40438;52.992;18.604;2022-12-07T08:34:52;100154.94;;;0.87;100.00
54540;BME280;40438;52.992;18.604;2022-12-07T08:37:17;100157.56;;;0.79;100.00
54540;BME280;40438;52.992;18.604;2022-12-07T08:39:43;100159.41;;;0.87;100.00
54540;BME280;40438;52.992;18.604;2022-12-07T08:42:09;100153.31;;;0.86;100.00
54540;BME280;40438;52.992;18.604;2022-12-07T08:44:35;100147.84;;;0.96;100.00
54540;BME280;40438;52.992;18.604;2022-12-07T08:47:02;100149.16;;;1.00;100.00
54540;BME280;40438;52.992;18.604;2022-12-07T08:49:32;100146.19;;;1.03;100.00
54540;BME280;40438;52.992;18.604;2022-12-07T08:52:01;100152.94;;;1.14;100.00
54540;BME280;40438;52.992;18.604;2022-12-07T08:54:29;100146.53;;;1.08;100.00
54540;BME280;40438;52.992;18.604;2022-12-07T08:56:56;100151.97;;;0.99;100.00
54540;BME280;40438;52.992;18.604;2022-12-07T08:59:22;100146.19;;;1.11;100.00
54540;BME280;40438;52.992;18.604;2022-12-07T09:01:48;100138.94;;;1.05;100.00
54540;BME280;40438;52.992;18.604;2022-12-07T09:04:14;100138.44;;;1.18;100.00
54540;BME280;40438;52.992;18.604;2022-12-07T09:06:40;100137.59;;;1.26;100.00
54540;BME280;40438;52.992;18.604;2022-12-07T09:09:09;100137.09;;;1.22;100.00
54540;BME280;40438;52.992;18.604;2022-12-07T09:11:35;100136.28;;;1.22;100.00
54540;BME280;40438;52.992;18.604;2022-12-07T09:14:01;100135.94;;;1.25;100.00
54540;BME280;40438;52.992;18.604;2022-12-07T09:16:26;100131.81;;;1.30;100.00
54540;BME280;40438;52.992;18.604;2022-12-07T09:18:52;100114.66;;;1.34;100.00
54540;BME280;40438;52.992;18.604;2022-12-07T09:21:18;100126.34;;;1.32;100.00
54540;BME280;40438;52.992;18.604;2022-12-07T09:23:44;100122.84;;;1.39;100.00
54540;BME280;40438;52.992;18.604;2022-12-07T09:26:11;100120.06;;;1.33;100.00
54540;BME280;40438;52.992;18.604;2022-12-07T09:28:37;100110.19;;;1.27;100.00
54540;BME280;40438;52.992;18.604;2022-12-07T09:31:03;100112.38;;;1.15;100.00
54540;BME280;40438;52.992;18.604;2022-12-07T09:33:29;100108.41;;;1.27;100.00
54540;BME280;40438;52.992;18.604;2022-12-07T09:35:55;100106.59;;;1.28;100.00
54540;BME280;40438;52.992;18.604;2022-12-07T09:38:21;100112.34;;;1.23;100.00
54540;BME280;40438;52.992;18.604;2022-12-07T09:40:47;100108.75;;;1.24;100.00
54540;BME280;40438;52.992;18.604;2022-12-07T09:43:15;100097.19;;;1.17;100.00
54540;BME280;40438;52.992;18.604;2022-12-07T09:45:43;100091.72;;;1.27;100.00
54540;BME280;40438;52.992;18.604;2022-12-07T09:48:16;100091.38;;;1.30;100.00
54540;BME280;40438;52.992;18.604;2022-12-07T09:50:43;100086.44;;;1.27;100.00
54540;BME280;40438;52.992;18.604;2022-12-07T09:53:13;100081.69;;;1.30;100.00
54540;BME280;40438;52.992;18.604;2022-12-07T09:55:41;100084.63;;;1.35;100.00
54540;BME280;40438;52.992;18.604;2022-12-07T09:58:12;100079.13;;;1.45;100.00
54540;BME280;40438;52.992;18.604;2022-12-07T10:00:44;100077.50;;;1.44;100.00
54540;BME280;40438;52.992;18.604;2022-12-07T10:03:11;100066.28;;;1.42;100.00
54540;BME280;40438;52.992;18.604;2022-12-07T10:05:39;100075.81;;;1.51;100.00
54540;BME280;40438;52.992;18.604;2022-12-07T10:08:08;100069.56;;;1.52;100.00
54540;BME280;40438;52.992;18.604;2022-12-07T10:10:36;100070.25;;;1.46;100.00
54540;BME280;40438;52.992;18.604;2022-12-07T10:13:04;100065.25;;;1.51;100.00
54540;BME280;40438;52.992;18.604;2022-12-07T10:15:46;100065.19;;;1.68;100.00
54540;BME280;40438;52.992;18.604;2022-12-07T10:18:33;100066.50;;;1.72;100.00
54540;BME280;40438;52.992;18.604;2022-12-07T10:21:05;100052.44;;;1.71;100.00
54540;BME280;40438;52.992;18.604;2022-12-07T10:23:35;100058.22;;;1.75;100.00
54540;BME280;40438;52.992;18.604;2022-12-07T10:26:20;100056.66;;;1.57;100.00
54540;BME280;40438;52.992;18.604;2022-12-07T10:28:46;100053.22;;;1.49;100.00
54540;BME280;40438;52.992;18.604;2022-12-07T10:31:17;100047.91;;;1.57;100.00
54540;BME280;40438;52.992;18.604;2022-12-07T10:33:50;100044.47;;;1.56;100.00
54540;BME280;40438;52.992;18.604;2022-12-07T10:36:23;100046.44;;;1.54;100.00
54540;BME280;40438;52.992;18.604;2022-12-07T10:38:51;100036.75;;;1.47;100.00
54540;BME280;40438;52.992;18.604;2022-12-07T10:41:17;100039.56;;;1.45;100.00
54540;BME280;40438;52.992;18.604;2022-12-07T10:43:51;100027.47;;;1.59;100.00
54540;BME280;40438;52.992;18.604;2022-12-07T10:46:49;100040.13;;;1.63;100.00
54540;BME280;40438;52.992;18.604;2022-12-07T10:52:23;100029.75;;;1.62;100.00
54540;BME280;40438;52.992;18.604;2022-12-07T10:55:03;100025.31;;;1.54;100.00
54540;BME280;40438;52.992;18.604;2022-12-07T10:57:44;100022.81;;;1.61;100.00
54540;BME280;40438;52.992;18.604;2022-12-07T11:00:17;100012.38;;;1.68;100.00
54540;BME280;40438;52.992;18.604;2022-12-07T11:05:44;100010.41;;;1.70;100.00
54540;BME280;40438;52.992;18.604;2022-12-07T11:08:19;100011.69;;;1.74;100.00
54540;BME280;40438;52.992;18.604;2022-12-07T11:10:52;99996.84;;;1.73;100.00
54540;BME280;40438;52.992;18.604;2022-12-07T11:13:29;99996.66;;;1.74;100.00
54540;BME280;40438;52.992;18.604;2022-12-07T11:16:18;99999.13;;;1.76;100.00
54540;BME280;40438;52.992;18.604;2022-12-07T11:18:57;100002.28;;;1.71;100.00
54540;BME280;40438;52.992;18.604;2022-12-07T11:21:27;99993.19;;;1.74;100.00
54540;BME280;40438;52.992;18.604;2022-12-07T11:24:01;99994.78;;;1.83;100.00
54540;BME280;40438;52.992;18.604;2022-12-07T11:26:41;99984.66;;;1.72;100.00
54540;BME280;40438;52.992;18.604;2022-12-07T11:29:17;99986.75;;;1.76;100.00
54540;BME280;40438;52.992;18.604;2022-12-07T11:31:55;99977.91;;;1.69;100.00
54540;BME280;40438;52.992;18.604;2022-12-07T11:34:31;99983.59;;;1.81;100.00
54540;BME280;40438;52.992;18.604;2022-12-07T11:37:01;99975.03;;;1.79;100.00
54540;BME280;40438;52.992;18.604;2022-12-07T11:39:31;99978.44;;;1.88;100.00
54540;BME280;40438;52.992;18.604;2022-12-07T11:42:03;99981.13;;;1.79;100.00
54540;BME280;40438;52.992;18.604;2022-12-07T11:44:39;99966.44;;;1.77;100.00
54540;BME280;40438;52.992;18.604;2022-12-07T11:47:10;99959.53;;;1.76;100.00
54540;BME280;40438;52.992;18.604;2022-12-07T11:49:45;99965.16;;;1.73;100.00
54540;BME280;40438;52.992;18.604;2022-12-07T11:52:20;99953.66;;;1.66;100.00
54540;BME280;40438;52.992;18.604;2022-12-07T11:54:50;99952.34;;;1.61;100.00
54540;BME280;40438;52.992;18.604;2022-12-07T11:57:21;99955.25;;;1.75;100.00
54540;BME280;40438;52.992;18.604;2022-12-07T11:59:51;99947.38;;;1.67;100.00
54540;BME280;40438;52.992;18.604;2022-12-07T12:02:21;99947.22;;;1.68;100.00
54540;BME280;40438;52.992;18.604;2022-12-07T12:04:54;99949.53;;;1.63;100.00
54540;BME280;40438;52.992;18.604;2022-12-07T12:07:23;99940.91;;;1.46;100.00
54540;BME280;40438;52.992;18.604;2022-12-07T12:09:52;99940.06;;;1.46;100.00
54540;BME280;40438;52.992;18.604;2022-12-07T12:12:30;99934.94;;;1.52;100.00
54540;BME280;40438;52.992;18.604;2022-12-07T12:15:13;99933.97;;;1.45;100.00
54540;BME280;40438;52.992;18.604;2022-12-07T12:17:52;99927.72;;;1.46;100.00
54540;BME280;40438;52.992;18.604;2022-12-07T12:20:25;99935.00;;;1.67;100.00
54540;BME280;40438;52.992;18.604;2022-12-07T12:22:54;99923.81;;;1.65;100.00
54540;BME280;40438;52.992;18.604;2022-12-07T12:25:24;99929.94;;;1.57;100.00
54540;BME280;40438;52.992;18.604;2022-12-07T12:27:52;99924.97;;;1.62;100.00
54540;BME280;40438;52.992;18.604;2022-12-07T12:30:30;99933.16;;;1.68;100.00
54540;BME280;40438;52.992;18.604;2022-12-07T12:33:03;99931.31;;;1.53;100.00
54540;BME280;40438;52.992;18.604;2022-12-07T12:35:33;99923.66;;;1.58;100.00
54540;BME280;40438;52.992;18.604;2022-12-07T12:38:27;99920.19;;;1.58;100.00
54540;BME280;40438;52.992;18.604;2022-12-07T12:40:55;99914.47;;;1.54;100.00
54540;BME280;40438;52.992;18.604;2022-12-07T12:43:44;99910.66;;;1.57;100.00
54540;BME280;40438;52.992;18.604;2022-12-07T12:49:34;99912.16;;;1.51;100.00
54540;BME280;40438;52.992;18.604;2022-12-07T12:55:16;99906.25;;;1.49;100.00
54540;BME280;40438;52.992;18.604;2022-12-07T12:57:42;99900.03;;;1.42;100.00
54540;BME280;40438;52.992;18.604;2022-12-07T13:00:17;99898.06;;;1.36;100.00
54540;BME280;40438;52.992;18.604;2022-12-07T13:02:48;99904.38;;;1.35;100.00
54540;BME280;40438;52.992;18.604;2022-12-07T13:05:19;99886.81;;;1.42;100.00
54540;BME280;40438;52.992;18.604;2022-12-07T13:08:05;99897.03;;;1.45;100.00